createdAt,value
2017-12-06T00:00:25.531Z,68.20
2017-12-06T00:01:25.555Z,58.00
2017-12-06T00:02:25.583Z,67.80
2017-12-06T00:03:25.609Z,67.70
2017-12-06T00:04:25.637Z,74.50
2017-12-06T00:05:25.662Z,71.80
2017-12-06T00:06:25.688Z,72.80
2017-12-06T00:07:25.715Z,75.60
2017-12-06T00:08:25.742Z,70.10
2017-12-06T00:09:25.767Z,72.20
2017-12-06T00:10:25.794Z,68.50
2017-12-06T00:11:25.821Z,76.60
2017-12-06T00:12:25.847Z,78.20
2017-12-06T00:13:25.872Z,75.70
2017-12-06T00:14:25.900Z,74.40
2017-12-06T00:15:25.926Z,81.80
2017-12-06T00:16:25.952Z,67.90
2017-12-06T00:17:25.979Z,79.50
2017-12-06T00:18:26.005Z,80.30
2017-12-06T00:19:26.032Z,69.10
2017-12-06T00:20:26.058Z,78.70
2017-12-06T00:21:26.086Z,79.80
2017-12-06T00:22:26.111Z,78.10
2017-12-06T00:23:26.137Z,87.80
2017-12-06T00:24:26.164Z,87.80
2017-12-06T00:25:26.190Z,79.20
2017-12-06T00:26:26.217Z,75.70
2017-12-06T00:27:26.244Z,74.90
2017-12-06T00:28:26.271Z,82.10
2017-12-06T00:29:26.296Z,91.60
2017-12-06T00:30:26.323Z,86.20
2017-12-06T00:31:26.349Z,90.30
2017-12-06T00:32:26.376Z,83.90
2017-12-06T00:33:26.403Z,86.70
2017-12-06T00:34:26.429Z,92.70
2017-12-06T00:35:26.456Z,88.10
2017-12-06T00:36:26.482Z,89.80
2017-12-06T00:37:26.508Z,77.30
2017-12-06T00:38:26.535Z,78.10
2017-12-06T00:39:26.562Z,75.60
2017-12-06T00:40:26.589Z,81.00
2017-12-06T00:41:26.615Z,86.90
2017-12-06T00:42:26.641Z,85.50
2017-12-06T00:43:26.668Z,95.70
2017-12-06T00:44:26.695Z,89.10
2017-12-06T00:45:26.721Z,92.30
2017-12-06T00:46:26.748Z,93.40
2017-12-06T00:47:26.774Z,87.40
2017-12-06T00:48:26.801Z,83.70
2017-12-06T00:49:26.827Z,91.10
2017-12-06T00:50:26.854Z,98.70
2017-12-06T00:51:26.881Z,92.30
2017-12-06T00:52:26.907Z,79.40
2017-12-06T00:53:26.933Z,88.30
2017-12-06T00:54:26.959Z,85.60
2017-12-06T00:55:26.987Z,84.60
2017-12-06T00:56:27.014Z,88.00
2017-12-06T00:57:27.040Z,88.20
2017-12-06T00:58:27.074Z,89.40
2017-12-06T00:59:27.094Z,92.00
2017-12-06T01:00:27.121Z,83.60
2017-12-06T01:01:27.146Z,94.60
2017-12-06T01:02:27.173Z,95.30
2017-12-06T01:03:27.203Z,92.30
2017-12-06T01:04:27.228Z,95.80
2017-12-06T01:05:27.254Z,93.80
2017-12-06T01:06:27.312Z,114.30
2017-12-06T01:07:27.310Z,97.80
2017-12-06T01:08:27.335Z,98.20
2017-12-06T01:09:27.360Z,96.60
2017-12-06T01:10:27.387Z,97.80
2017-12-06T01:11:27.415Z,96.00
2017-12-06T01:12:27.443Z,85.70
2017-12-06T01:13:27.469Z,89.70
2017-12-06T01:14:27.496Z,83.30
2017-12-06T01:15:27.523Z,80.20
2017-12-06T01:16:27.549Z,88.20
2017-12-06T01:17:27.576Z,91.90
2017-12-06T01:18:27.602Z,84.30
2017-12-06T01:19:27.629Z,82.90
2017-12-06T01:20:27.656Z,82.30
2017-12-06T01:21:27.682Z,84.90
2017-12-06T01:22:27.709Z,91.30
2017-12-06T01:23:27.736Z,97.40
2017-12-06T01:24:27.763Z,92.90
2017-12-06T01:25:27.790Z,90.90
2017-12-06T01:26:27.816Z,88.90
2017-12-06T01:27:27.843Z,89.40
2017-12-06T01:28:27.871Z,76.20
2017-12-06T01:29:27.904Z,93.00
2017-12-06T01:30:27.924Z,96.00
2017-12-06T01:31:27.949Z,93.00
2017-12-06T01:32:27.978Z,103.90
2017-12-06T01:33:28.004Z,85.10
2017-12-06T01:34:28.030Z,91.10
2017-12-06T01:35:28.059Z,90.00
2017-12-06T01:36:28.084Z,87.20
2017-12-06T01:37:28.111Z,81.30
2017-12-06T01:38:28.138Z,98.80
2017-12-06T01:39:28.165Z,82.40
2017-12-06T01:40:28.192Z,92.60
2017-12-06T01:41:28.217Z,103.80
2017-12-06T01:42:28.244Z,95.30
2017-12-06T01:43:28.275Z,92.30
2017-12-06T01:44:28.299Z,84.20
2017-12-06T01:45:28.325Z,88.00
2017-12-06T01:46:28.353Z,95.30
2017-12-06T01:47:28.380Z,90.10
2017-12-06T01:48:28.407Z,94.20
2017-12-06T01:49:28.432Z,99.80
2017-12-06T01:50:28.459Z,84.80
2017-12-06T01:51:28.485Z,91.50
2017-12-06T01:52:28.515Z,88.20
2017-12-06T01:53:28.540Z,84.30
2017-12-06T01:54:28.567Z,84.70
2017-12-06T01:55:28.595Z,91.10
2017-12-06T01:56:28.621Z,82.80
2017-12-06T01:57:28.648Z,89.50
2017-12-06T01:58:28.675Z,77.20
2017-12-06T01:59:28.701Z,73.80
2017-12-06T02:00:28.729Z,73.80
2017-12-06T02:01:28.757Z,77.00
2017-12-06T02:02:28.783Z,72.90
2017-12-06T02:03:28.810Z,66.50
2017-12-06T02:04:28.836Z,71.60
2017-12-06T02:05:28.865Z,76.10
2017-12-06T02:06:28.890Z,67.20
2017-12-06T02:07:28.916Z,71.50
2017-12-06T02:08:28.943Z,83.70
2017-12-06T02:09:28.970Z,81.80
2017-12-06T02:10:28.997Z,71.10
2017-12-06T02:11:29.024Z,74.20
2017-12-06T02:12:29.057Z,74.00
2017-12-06T02:13:29.077Z,73.90
2017-12-06T02:14:29.104Z,75.40
2017-12-06T02:15:29.131Z,78.10
2017-12-06T02:16:29.158Z,75.20
2017-12-06T02:17:29.184Z,71.10
2017-12-06T02:18:29.213Z,72.30
2017-12-06T02:19:29.240Z,77.00
2017-12-06T02:20:29.268Z,70.90
2017-12-06T02:21:29.296Z,73.20
2017-12-06T02:22:29.320Z,84.30
2017-12-06T02:23:29.346Z,86.20
2017-12-06T02:24:29.373Z,81.30
2017-12-06T02:25:29.399Z,77.00
2017-12-06T02:26:29.427Z,72.50
2017-12-06T02:27:29.453Z,73.00
2017-12-06T02:28:29.480Z,74.70
2017-12-06T02:29:29.506Z,66.10
2017-12-06T02:30:29.533Z,62.00
2017-12-06T02:31:29.561Z,68.80
2017-12-06T02:32:29.590Z,66.90
2017-12-06T02:33:29.614Z,67.90
2017-12-06T02:34:29.641Z,71.20
2017-12-06T02:35:29.668Z,72.90
2017-12-06T02:36:29.696Z,77.60
2017-12-06T02:37:29.724Z,70.90
2017-12-06T02:38:29.748Z,68.60
2017-12-06T02:39:29.775Z,71.20
2017-12-06T02:40:29.801Z,80.00
2017-12-06T02:41:29.828Z,81.50
2017-12-06T02:42:29.856Z,79.40
2017-12-06T02:43:29.883Z,82.90
2017-12-06T02:44:29.910Z,80.40
2017-12-06T02:45:29.936Z,78.70
2017-12-06T02:46:29.962Z,77.60
2017-12-06T02:47:29.989Z,68.40
2017-12-06T02:48:30.018Z,75.20
2017-12-06T02:49:30.043Z,63.30
2017-12-06T02:50:30.069Z,50.10
2017-12-06T02:51:30.097Z,60.00
2017-12-06T02:52:30.124Z,54.40
2017-12-06T02:53:30.150Z,51.30
2017-12-06T02:54:30.177Z,50.50
2017-12-06T02:55:30.205Z,53.30
2017-12-06T02:56:30.248Z,49.20
2017-12-06T02:57:30.258Z,48.90
2017-12-06T02:58:30.285Z,51.10
2017-12-06T02:59:30.312Z,50.10
2017-12-06T03:00:30.340Z,57.20
2017-12-06T03:01:30.366Z,62.50
2017-12-06T03:02:30.393Z,62.70
2017-12-06T03:03:30.420Z,71.60
2017-12-06T03:04:30.447Z,71.30
2017-12-06T03:05:30.473Z,69.30
2017-12-06T03:06:30.500Z,65.20
2017-12-06T03:07:30.527Z,60.30
2017-12-06T03:08:30.555Z,62.50
2017-12-06T03:09:30.581Z,62.70
2017-12-06T03:10:30.608Z,62.60
2017-12-06T03:11:30.634Z,60.20
2017-12-06T03:12:30.662Z,66.90
2017-12-06T03:13:30.690Z,65.30
2017-12-06T03:14:30.714Z,64.60
2017-12-06T03:15:30.742Z,63.10
2017-12-06T03:16:30.770Z,73.60
2017-12-06T03:17:30.797Z,60.50
2017-12-06T03:18:30.823Z,56.40
2017-12-06T03:19:30.851Z,55.40
2017-12-06T03:20:30.876Z,51.90
2017-12-06T03:21:30.904Z,56.70
2017-12-06T03:22:30.931Z,59.60
2017-12-06T03:23:30.957Z,59.00
2017-12-06T03:24:30.985Z,57.70
2017-12-06T03:25:31.011Z,59.90
2017-12-06T03:26:31.038Z,65.10
2017-12-06T03:27:31.066Z,59.70
2017-12-06T03:28:31.091Z,57.10
2017-12-06T03:29:31.123Z,64.20
2017-12-06T03:30:31.147Z,61.70
2017-12-06T03:31:31.172Z,66.10
2017-12-06T03:32:31.199Z,66.40
2017-12-06T03:33:31.226Z,63.70
2017-12-06T03:34:31.251Z,68.90
2017-12-06T03:35:31.280Z,61.70
2017-12-06T03:36:31.307Z,56.30
2017-12-06T03:37:31.334Z,57.60
2017-12-06T03:38:31.360Z,63.00
2017-12-06T03:39:31.387Z,61.30
2017-12-06T03:40:31.420Z,65.80
2017-12-06T03:41:31.441Z,72.00
2017-12-06T03:42:31.471Z,61.70
2017-12-06T03:43:31.495Z,63.20
2017-12-06T03:44:31.522Z,64.00
2017-12-06T03:45:31.548Z,61.90
2017-12-06T03:46:31.575Z,66.90
2017-12-06T03:47:31.604Z,58.70
2017-12-06T03:48:31.631Z,64.40
2017-12-06T03:49:31.656Z,66.60
2017-12-06T03:50:31.684Z,63.40
2017-12-06T03:51:31.710Z,70.80
2017-12-06T03:52:31.737Z,77.60
2017-12-06T03:53:31.814Z,81.80
2017-12-06T03:54:31.793Z,76.50
2017-12-06T03:55:31.817Z,85.30
2017-12-06T03:56:31.846Z,67.00
2017-12-06T03:57:31.871Z,69.70
2017-12-06T03:58:31.899Z,70.80
2017-12-06T03:59:31.929Z,69.90
2017-12-06T04:00:31.954Z,67.30
2017-12-06T04:01:31.979Z,64.50
2017-12-06T04:02:32.005Z,62.60
2017-12-06T04:03:32.031Z,73.60
2017-12-06T04:04:32.060Z,71.50
2017-12-06T04:05:32.087Z,72.20
2017-12-06T04:06:32.117Z,75.90
2017-12-06T04:07:32.141Z,77.80
2017-12-06T04:08:32.166Z,74.90
2017-12-06T04:09:32.193Z,69.90
2017-12-06T04:10:32.220Z,70.50
2017-12-06T04:11:32.247Z,66.90
2017-12-06T04:12:32.274Z,66.40
2017-12-06T04:13:32.301Z,64.10
2017-12-06T04:14:32.327Z,65.90
2017-12-06T04:15:32.355Z,65.00
2017-12-06T04:16:32.381Z,74.50
2017-12-06T04:17:32.408Z,80.80
2017-12-06T04:18:32.434Z,89.80
2017-12-06T04:19:32.463Z,75.10
2017-12-06T04:20:32.490Z,74.50
2017-12-06T04:21:32.519Z,68.20
2017-12-06T04:22:32.543Z,65.10
2017-12-06T04:23:32.570Z,69.00
2017-12-06T04:24:32.597Z,67.40
2017-12-06T04:25:32.624Z,68.20
2017-12-06T04:26:32.649Z,67.30
2017-12-06T04:27:32.678Z,74.40
2017-12-06T04:28:32.705Z,70.10
2017-12-06T04:29:32.731Z,76.10
2017-12-06T04:30:32.758Z,64.80
2017-12-06T04:31:32.786Z,69.70
2017-12-06T04:32:32.819Z,70.40
2017-12-06T04:33:32.838Z,65.70
2017-12-06T04:34:32.866Z,72.00
2017-12-06T04:35:32.893Z,72.50
2017-12-06T04:36:32.919Z,65.10
2017-12-06T04:37:32.947Z,65.70
2017-12-06T04:38:32.973Z,61.80
2017-12-06T04:39:33.001Z,64.80
2017-12-06T04:40:33.028Z,66.00
2017-12-06T04:41:33.054Z,71.60
2017-12-06T04:42:33.081Z,63.80
2017-12-06T04:43:33.108Z,66.70
2017-12-06T04:44:33.136Z,74.50
2017-12-06T04:45:33.166Z,68.00
2017-12-06T04:46:33.189Z,67.60
2017-12-06T04:47:33.216Z,72.90
2017-12-06T04:48:33.243Z,78.70
2017-12-06T04:49:33.272Z,70.80
2017-12-06T04:50:33.296Z,71.90
2017-12-06T04:51:33.323Z,77.40
2017-12-06T04:52:33.351Z,71.60
2017-12-06T04:53:33.376Z,73.90
2017-12-06T04:54:33.406Z,67.90
2017-12-06T04:55:33.432Z,62.40
2017-12-06T04:56:33.458Z,63.70
2017-12-06T04:57:33.484Z,72.00
2017-12-06T04:58:33.512Z,64.60
2017-12-06T04:59:33.540Z,69.20
2017-12-06T05:00:33.566Z,66.80
2017-12-06T05:01:33.593Z,69.30
2017-12-06T05:02:33.619Z,64.30
2017-12-06T05:03:33.647Z,61.90
2017-12-06T05:04:33.675Z,66.60
2017-12-06T05:05:33.700Z,70.90
2017-12-06T05:06:33.729Z,72.30
2017-12-06T05:07:33.757Z,64.80
2017-12-06T05:08:33.782Z,68.30
2017-12-06T05:09:33.808Z,67.70
2017-12-06T05:10:33.835Z,65.40
2017-12-06T05:11:33.861Z,64.30
2017-12-06T05:12:33.890Z,62.70
2017-12-06T05:13:33.916Z,68.80
2017-12-06T05:14:33.944Z,61.90
2017-12-06T05:15:33.970Z,58.70
2017-12-06T05:16:33.998Z,62.30
2017-12-06T05:17:34.024Z,60.60
2017-12-06T05:18:34.051Z,64.10
2017-12-06T05:19:34.079Z,57.20
2017-12-06T05:20:34.106Z,61.10
2017-12-06T05:21:34.132Z,66.10
2017-12-06T05:22:34.159Z,59.80
2017-12-06T05:23:34.188Z,61.40
2017-12-06T05:24:34.214Z,63.70
2017-12-06T05:25:34.240Z,69.80
2017-12-06T05:26:34.267Z,61.90
2017-12-06T05:27:34.295Z,58.80
2017-12-06T05:28:34.322Z,61.60
2017-12-06T05:29:34.350Z,68.70
2017-12-06T05:30:34.374Z,67.90
2017-12-06T05:31:34.402Z,66.80
2017-12-06T05:32:34.430Z,79.30
2017-12-06T05:33:34.456Z,71.70
2017-12-06T05:34:34.484Z,61.00
2017-12-06T05:35:34.511Z,68.10
2017-12-06T05:36:34.538Z,63.30
2017-12-06T05:37:34.565Z,69.90
2017-12-06T05:38:34.591Z,59.20
2017-12-06T05:39:34.618Z,59.50
2017-12-06T05:40:34.646Z,60.40
2017-12-06T05:41:34.672Z,60.90
2017-12-06T05:42:34.698Z,68.00
2017-12-06T05:43:34.725Z,67.00
2017-12-06T05:44:34.755Z,67.00
2017-12-06T05:45:34.780Z,62.50
2017-12-06T05:46:34.806Z,69.80
2017-12-06T05:47:34.835Z,69.30
2017-12-06T05:48:34.862Z,62.70
2017-12-06T05:49:34.887Z,58.10
2017-12-06T05:50:34.919Z,59.70
2017-12-06T05:51:34.942Z,63.80
2017-12-06T05:52:34.969Z,63.90
2017-12-06T05:53:34.994Z,76.20
2017-12-06T05:54:35.022Z,84.40
2017-12-06T05:55:35.049Z,78.30
2017-12-06T05:56:35.076Z,79.30
2017-12-06T05:57:35.103Z,72.30
2017-12-06T05:58:35.130Z,70.70
2017-12-06T05:59:35.157Z,73.20
2017-12-06T06:00:35.185Z,61.60
2017-12-06T06:01:35.211Z,67.10
2017-12-06T06:02:35.236Z,64.40
2017-12-06T06:03:35.265Z,63.70
2017-12-06T06:04:35.292Z,70.00
2017-12-06T06:05:35.321Z,76.80
2017-12-06T06:06:35.346Z,79.60
2017-12-06T06:07:35.372Z,78.70
2017-12-06T06:08:35.401Z,75.50
2017-12-06T06:09:35.426Z,71.30
2017-12-06T06:10:35.453Z,62.50
2017-12-06T06:11:35.481Z,61.20
2017-12-06T06:12:35.507Z,65.20
2017-12-06T06:13:35.534Z,72.10
2017-12-06T06:14:35.561Z,73.20
2017-12-06T06:15:35.587Z,72.00
2017-12-06T06:16:35.615Z,83.60
2017-12-06T06:17:35.643Z,83.70
2017-12-06T06:18:35.669Z,92.20
2017-12-06T06:19:35.696Z,110.70
2017-12-06T06:20:35.724Z,118.90
2017-12-06T06:21:35.750Z,107.30
2017-12-06T06:22:35.778Z,96.10
2017-12-06T06:23:35.804Z,80.60
2017-12-06T06:24:35.831Z,76.30
2017-12-06T06:25:35.856Z,77.50
2017-12-06T06:26:35.884Z,82.60
2017-12-06T06:27:35.912Z,73.30
2017-12-06T06:28:35.939Z,76.00
2017-12-06T06:29:35.966Z,82.30
2017-12-06T06:30:35.992Z,78.00
2017-12-06T06:31:36.020Z,78.60
2017-12-06T06:32:36.046Z,78.40
2017-12-06T06:33:36.078Z,77.80
2017-12-06T06:34:36.100Z,72.30
2017-12-06T06:35:36.128Z,74.10
2017-12-06T06:36:36.157Z,80.90
2017-12-06T06:37:36.180Z,82.60
2017-12-06T06:38:36.208Z,83.30
2017-12-06T06:39:36.235Z,83.90
2017-12-06T06:40:36.261Z,80.20
2017-12-06T06:41:36.289Z,77.90
2017-12-06T06:42:36.316Z,76.10
2017-12-06T06:43:36.343Z,75.50
2017-12-06T06:44:36.370Z,74.70
2017-12-06T06:45:36.396Z,75.60
2017-12-06T06:46:36.423Z,70.20
2017-12-06T06:47:36.450Z,70.20
2017-12-06T06:48:36.478Z,71.20
2017-12-06T06:49:36.504Z,80.90
2017-12-06T06:50:36.567Z,73.80
2017-12-06T06:51:36.558Z,69.80
2017-12-06T06:52:36.584Z,66.90
2017-12-06T06:53:36.611Z,69.00
2017-12-06T06:54:36.638Z,67.20
2017-12-06T06:55:36.666Z,71.10
2017-12-06T06:56:36.696Z,75.40
2017-12-06T06:57:36.719Z,67.70
2017-12-06T06:58:36.746Z,64.00
2017-12-06T06:59:36.772Z,71.50
2017-12-06T07:00:36.799Z,72.40
2017-12-06T07:01:36.826Z,79.00
2017-12-06T07:02:36.853Z,73.30
2017-12-06T07:03:36.880Z,70.20
2017-12-06T07:04:36.907Z,75.80
2017-12-06T07:05:36.933Z,72.50
2017-12-06T07:06:36.961Z,77.90
2017-12-06T07:07:36.988Z,66.40
2017-12-06T07:08:37.015Z,67.90
2017-12-06T07:09:37.040Z,64.50
2017-12-06T07:10:37.068Z,67.00
2017-12-06T07:11:37.095Z,64.30
2017-12-06T07:12:37.121Z,62.10
2017-12-06T07:13:37.148Z,66.80
2017-12-06T07:14:37.176Z,62.20
2017-12-06T07:15:37.202Z,82.70
2017-12-06T07:16:37.229Z,79.40
2017-12-06T07:17:37.255Z,86.40
2017-12-06T07:18:37.283Z,78.90
2017-12-06T07:19:37.309Z,76.40
2017-12-06T07:20:37.337Z,72.80
2017-12-06T07:21:37.362Z,81.30
2017-12-06T07:22:37.389Z,83.30
2017-12-06T07:23:37.415Z,76.80
2017-12-06T07:24:37.442Z,81.50
2017-12-06T07:25:37.476Z,70.80
2017-12-06T07:26:37.496Z,72.60
2017-12-06T07:27:37.522Z,83.70
2017-12-06T07:28:37.550Z,76.30
2017-12-06T07:29:37.575Z,80.90
2017-12-06T07:30:37.601Z,75.70
2017-12-06T07:31:37.630Z,74.20
2017-12-06T07:32:37.657Z,73.20
2017-12-06T07:33:37.682Z,79.70
2017-12-06T07:34:37.709Z,73.00
2017-12-06T07:35:37.735Z,80.10
2017-12-06T07:36:37.763Z,85.20
2017-12-06T07:37:37.788Z,75.40
2017-12-06T07:38:37.820Z,69.70
2017-12-06T07:39:37.841Z,72.40
2017-12-06T07:40:37.870Z,71.50
2017-12-06T07:41:37.898Z,71.80
2017-12-06T07:42:37.925Z,65.20
2017-12-06T07:43:37.949Z,61.70
2017-12-06T07:44:37.976Z,54.40
2017-12-06T07:45:38.003Z,57.30
2017-12-06T07:46:38.030Z,58.00
2017-12-06T07:47:38.057Z,54.80
2017-12-06T07:48:38.084Z,55.90
2017-12-06T07:49:38.110Z,58.20
2017-12-06T07:50:38.137Z,58.70
2017-12-06T07:51:38.164Z,58.90
2017-12-06T07:52:38.191Z,53.30
2017-12-06T07:53:38.217Z,55.50
2017-12-06T07:54:38.244Z,54.80
2017-12-06T07:55:38.271Z,58.60
2017-12-06T07:56:38.298Z,56.40
2017-12-06T07:57:38.324Z,57.60
2017-12-06T07:58:38.351Z,54.60
2017-12-06T07:59:38.377Z,62.70
2017-12-06T08:00:38.404Z,55.30
2017-12-06T08:01:38.431Z,57.20
2017-12-06T08:02:38.458Z,64.90
2017-12-06T08:03:38.486Z,56.40
2017-12-06T08:04:38.512Z,57.00
2017-12-06T08:05:38.540Z,54.90
2017-12-06T08:06:38.566Z,56.10
2017-12-06T08:07:38.591Z,56.60
2017-12-06T08:08:38.620Z,52.90
2017-12-06T08:09:38.645Z,56.90
2017-12-06T08:10:38.722Z,56.30
2017-12-06T08:11:38.698Z,57.00
2017-12-06T08:12:38.727Z,53.60
2017-12-06T08:13:38.751Z,50.60
2017-12-06T08:14:38.780Z,50.40
2017-12-06T08:15:38.805Z,52.20
2017-12-06T08:16:38.832Z,56.80
2017-12-06T08:17:38.857Z,52.70
2017-12-06T08:18:38.885Z,56.90
2017-12-06T08:19:38.912Z,54.00
2017-12-06T08:20:38.938Z,53.40
2017-12-06T08:21:38.964Z,55.00
2017-12-06T08:22:38.991Z,52.30
2017-12-06T08:23:39.018Z,55.80
2017-12-06T08:24:39.061Z,54.80
2017-12-06T08:25:39.072Z,52.50
2017-12-06T08:26:39.099Z,53.50
2017-12-06T08:27:39.126Z,54.80
2017-12-06T08:28:39.153Z,57.00
2017-12-06T08:29:39.180Z,56.50
2017-12-06T08:30:39.206Z,58.30
2017-12-06T08:31:39.233Z,53.20
2017-12-06T08:32:39.260Z,53.40
2017-12-06T08:33:39.287Z,51.80
2017-12-06T08:34:39.317Z,54.30
2017-12-06T08:35:39.341Z,51.80
2017-12-06T08:36:39.367Z,55.80
2017-12-06T08:37:39.393Z,52.50
2017-12-06T08:38:39.422Z,57.70
2017-12-06T08:39:39.449Z,52.70
2017-12-06T08:40:39.475Z,56.20
2017-12-06T08:41:39.501Z,53.90
2017-12-06T08:42:39.529Z,52.70
2017-12-06T08:43:39.557Z,48.60
2017-12-06T08:44:39.582Z,49.00
2017-12-06T08:45:39.610Z,53.20
2017-12-06T08:46:39.640Z,46.50
2017-12-06T08:47:39.665Z,53.40
2017-12-06T08:48:39.692Z,48.50
2017-12-06T08:49:39.719Z,46.60
2017-12-06T08:50:39.746Z,50.00
2017-12-06T08:51:39.772Z,50.40
2017-12-06T08:52:39.803Z,43.10
2017-12-06T08:53:39.827Z,44.30
2017-12-06T08:54:39.854Z,48.30
2017-12-06T08:55:39.882Z,46.50
2017-12-06T08:56:39.909Z,42.60
2017-12-06T08:57:39.937Z,44.10
2017-12-06T08:58:39.963Z,42.90
2017-12-06T08:59:39.991Z,43.90
2017-12-06T09:00:40.017Z,42.70
2017-12-06T09:01:40.044Z,43.70
2017-12-06T09:02:40.072Z,41.80
2017-12-06T09:03:40.099Z,47.10
2017-12-06T09:04:40.127Z,43.70
2017-12-06T09:05:40.155Z,41.20
2017-12-06T09:06:40.220Z,42.60
2017-12-06T09:07:40.210Z,45.40
2017-12-06T09:08:40.237Z,42.70
2017-12-06T09:09:40.263Z,44.40
2017-12-06T09:10:40.291Z,42.50
2017-12-06T09:11:40.321Z,48.50
2017-12-06T09:12:40.346Z,45.20
2017-12-06T09:13:40.373Z,44.90
2017-12-06T09:14:40.401Z,44.30
2017-12-06T09:15:40.428Z,49.50
2017-12-06T09:16:40.457Z,45.50
2017-12-06T09:17:40.483Z,42.50
2017-12-06T09:18:40.511Z,43.20
2017-12-06T09:19:40.538Z,48.10
2017-12-06T09:20:40.566Z,42.50
2017-12-06T09:21:40.593Z,41.90
2017-12-06T09:22:40.620Z,37.90
2017-12-06T09:23:40.648Z,36.50
2017-12-06T09:24:40.679Z,38.40
2017-12-06T09:25:40.703Z,43.20
2017-12-06T09:26:40.732Z,37.10
2017-12-06T09:27:40.760Z,40.70
2017-12-06T09:28:40.788Z,41.00
2017-12-06T09:29:40.815Z,40.20
2017-12-06T09:30:40.843Z,36.90
2017-12-06T09:31:40.871Z,32.40
2017-12-06T09:32:40.905Z,39.30
2017-12-06T09:33:40.925Z,36.60
2017-12-06T09:34:40.955Z,34.60
2017-12-06T09:35:40.982Z,37.10
2017-12-06T09:36:41.017Z,36.00
2017-12-06T09:37:41.037Z,36.90
2017-12-06T09:38:41.066Z,34.30
2017-12-06T09:39:41.093Z,34.60
2017-12-06T09:40:41.122Z,37.50
2017-12-06T09:41:41.151Z,33.60
2017-12-06T09:42:41.179Z,31.70
2017-12-06T09:43:41.207Z,35.70
2017-12-06T09:44:41.235Z,34.00
2017-12-06T09:45:41.263Z,33.20
2017-12-06T09:46:41.291Z,36.80
2017-12-06T09:47:41.322Z,37.30
2017-12-06T09:48:41.348Z,34.30
2017-12-06T09:49:41.375Z,35.70
2017-12-06T09:50:41.404Z,33.10
2017-12-06T09:51:41.433Z,33.90
2017-12-06T09:52:41.461Z,33.40
2017-12-06T09:53:41.488Z,34.60
2017-12-06T09:54:41.516Z,29.60
2017-12-06T09:55:41.546Z,37.20
2017-12-06T09:56:41.575Z,35.00
2017-12-06T09:57:41.602Z,34.50
2017-12-06T09:58:41.632Z,31.70
2017-12-06T09:59:41.660Z,35.80
2017-12-06T10:00:41.688Z,32.80
2017-12-06T10:01:41.716Z,32.50
2017-12-06T10:02:41.746Z,35.30
2017-12-06T10:03:41.774Z,33.30
2017-12-06T10:04:41.803Z,40.70
2017-12-06T10:05:41.833Z,32.20
2017-12-06T10:06:41.862Z,32.90
2017-12-06T10:07:41.889Z,32.40
2017-12-06T10:08:41.918Z,32.00
2017-12-06T10:09:41.945Z,32.80
2017-12-06T10:10:41.975Z,36.60
2017-12-06T10:11:42.010Z,33.70
2017-12-06T10:12:42.033Z,33.20
2017-12-06T10:13:42.061Z,36.30
2017-12-06T10:14:42.090Z,34.10
2017-12-06T10:15:42.128Z,37.70
2017-12-06T10:16:42.151Z,37.80
2017-12-06T10:17:42.176Z,38.90
2017-12-06T10:18:42.210Z,35.30
2017-12-06T10:19:42.235Z,39.00
2017-12-06T10:20:42.263Z,32.90
2017-12-06T10:21:42.291Z,33.90
2017-12-06T10:22:42.321Z,34.50
2017-12-06T10:23:42.350Z,35.00
2017-12-06T10:24:42.378Z,37.00
2017-12-06T10:25:42.408Z,36.50
2017-12-06T10:26:42.443Z,35.00
2017-12-06T10:27:42.466Z,34.40
2017-12-06T10:28:42.496Z,36.20
2017-12-06T10:29:42.525Z,33.10
2017-12-06T10:30:42.555Z,39.70
2017-12-06T10:31:42.582Z,35.60
2017-12-06T10:32:42.611Z,42.40
2017-12-06T10:33:42.639Z,40.30
2017-12-06T10:34:42.668Z,42.20
2017-12-06T10:35:42.698Z,37.80
2017-12-06T10:36:42.728Z,42.30
2017-12-06T10:37:42.756Z,38.40
2017-12-06T10:38:42.785Z,37.20
2017-12-06T10:39:42.815Z,40.00
2017-12-06T10:40:42.857Z,33.90
2017-12-06T10:41:42.871Z,42.70
2017-12-06T10:42:42.901Z,42.20
2017-12-06T10:43:42.929Z,40.60
2017-12-06T10:44:42.960Z,41.70
2017-12-06T10:45:42.988Z,38.20
2017-12-06T10:46:43.021Z,36.80
2017-12-06T10:47:43.046Z,44.00
2017-12-06T10:48:43.076Z,43.20
2017-12-06T10:49:43.104Z,43.70
2017-12-06T10:50:43.132Z,44.60
2017-12-06T10:51:43.163Z,46.20
2017-12-06T10:52:43.193Z,42.00
2017-12-06T10:53:43.220Z,46.00
2017-12-06T10:54:43.250Z,42.60
2017-12-06T10:55:43.283Z,42.50
2017-12-06T10:56:43.314Z,43.40
2017-12-06T10:57:43.337Z,42.50
2017-12-06T10:58:43.366Z,50.80
2017-12-06T10:59:43.395Z,46.20
2017-12-06T11:00:43.425Z,47.50
2017-12-06T11:01:43.453Z,46.20
2017-12-06T11:02:43.486Z,44.90
2017-12-06T11:03:43.513Z,41.40
2017-12-06T11:04:43.542Z,46.90
2017-12-06T11:05:43.586Z,44.90
2017-12-06T11:06:43.600Z,46.90
2017-12-06T11:07:43.628Z,51.80
2017-12-06T11:08:43.659Z,46.50
2017-12-06T11:09:43.687Z,49.70
2017-12-06T11:10:43.717Z,52.80
2017-12-06T11:11:43.746Z,50.30
2017-12-06T11:12:43.775Z,44.00
2017-12-06T11:13:43.804Z,53.90
2017-12-06T11:14:43.832Z,47.20
2017-12-06T11:15:43.862Z,44.10
2017-12-06T11:16:43.893Z,48.10
2017-12-06T11:17:43.922Z,48.90
2017-12-06T11:18:43.951Z,50.90
2017-12-06T11:19:43.981Z,52.20
2017-12-06T11:20:44.010Z,50.90
2017-12-06T11:21:44.038Z,45.30
2017-12-06T11:22:44.067Z,46.60
2017-12-06T11:23:44.101Z,49.50
2017-12-06T11:24:44.128Z,51.60
2017-12-06T11:25:44.157Z,54.00
2017-12-06T11:26:44.185Z,55.20
2017-12-06T11:27:44.215Z,54.10
2017-12-06T11:28:44.244Z,52.60
2017-12-06T11:29:44.282Z,51.30
2017-12-06T11:30:44.302Z,54.50
2017-12-06T11:31:44.332Z,49.70
2017-12-06T11:32:44.363Z,51.90
2017-12-06T11:33:44.398Z,48.30
2017-12-06T11:34:44.421Z,45.30
2017-12-06T11:35:44.449Z,46.50
2017-12-06T11:36:44.481Z,49.40
2017-12-06T11:37:44.510Z,45.50
2017-12-06T11:38:44.541Z,45.00
2017-12-06T11:39:44.569Z,47.60
2017-12-06T11:40:44.599Z,44.80
2017-12-06T11:41:44.628Z,44.80
2017-12-06T11:42:44.658Z,43.10
2017-12-06T11:43:44.686Z,48.80
2017-12-06T11:44:44.717Z,41.10
2017-12-06T11:45:44.747Z,42.30
2017-12-06T11:46:44.777Z,40.90
2017-12-06T11:47:44.807Z,45.20
2017-12-06T11:48:44.837Z,46.80
2017-12-06T11:49:44.866Z,46.50
2017-12-06T11:50:44.896Z,40.00
2017-12-06T11:51:44.925Z,42.10
2017-12-06T11:52:44.956Z,46.50
2017-12-06T11:53:44.985Z,41.60
2017-12-06T11:54:45.014Z,39.80
2017-12-06T11:55:45.045Z,43.40
2017-12-06T11:56:45.075Z,40.40
2017-12-06T11:57:45.105Z,42.90
2017-12-06T11:58:45.135Z,40.60
2017-12-06T11:59:45.165Z,45.90
2017-12-06T12:00:45.195Z,41.70
2017-12-06T12:01:45.224Z,44.10
2017-12-06T12:02:45.255Z,39.80
2017-12-06T12:03:45.286Z,39.80
2017-12-06T12:04:45.315Z,48.50
2017-12-06T12:05:45.348Z,43.80
2017-12-06T12:06:45.375Z,44.90
2017-12-06T12:07:45.405Z,39.60
2017-12-06T12:08:45.435Z,43.00
2017-12-06T12:09:45.466Z,39.80
2017-12-06T12:10:45.496Z,46.70
2017-12-06T12:11:45.526Z,42.30
2017-12-06T12:12:45.556Z,44.90
2017-12-06T12:13:45.586Z,41.80
2017-12-06T12:14:45.618Z,39.30
2017-12-06T12:15:45.648Z,40.00
2017-12-06T12:16:45.679Z,38.70
2017-12-06T12:17:45.708Z,41.10
2017-12-06T12:18:45.738Z,38.10
2017-12-06T12:19:45.769Z,44.80
2017-12-06T12:20:45.798Z,36.00
2017-12-06T12:21:45.830Z,44.70
2017-12-06T12:22:45.859Z,39.10
2017-12-06T12:23:45.890Z,35.60
2017-12-06T12:24:45.921Z,40.60
2017-12-06T12:25:45.951Z,43.70
2017-12-06T12:26:45.981Z,41.90
2017-12-06T12:27:46.012Z,39.90
2017-12-06T12:28:46.042Z,42.80
2017-12-06T12:29:46.073Z,43.40
2017-12-06T12:30:46.103Z,40.60
2017-12-06T12:31:46.133Z,39.30
2017-12-06T12:32:46.170Z,38.90
2017-12-06T12:33:46.194Z,38.60
2017-12-06T12:34:46.224Z,42.00
2017-12-06T12:35:46.256Z,39.40
2017-12-06T12:36:46.287Z,43.30
2017-12-06T12:37:46.317Z,42.10
2017-12-06T12:38:46.347Z,44.20
2017-12-06T12:39:46.380Z,40.90
2017-12-06T12:40:46.410Z,43.80
2017-12-06T12:41:46.439Z,41.60
2017-12-06T12:42:46.469Z,41.50
2017-12-06T12:43:46.504Z,41.40
2017-12-06T12:44:46.532Z,39.10
2017-12-06T12:45:46.561Z,40.80
2017-12-06T12:46:46.594Z,40.50
2017-12-06T12:47:46.622Z,46.00
2017-12-06T12:48:46.653Z,44.10
2017-12-06T12:49:46.683Z,42.40
2017-12-06T12:50:46.718Z,41.30
2017-12-06T12:51:46.744Z,40.60
2017-12-06T12:52:46.776Z,45.30